Current Weather

Terrell Muni

Terrell, Texas (KTRL)

Report from: Saturday, February 24, 2024 1:53 PM CST
Current time: Saturday, February 24, 2024 2:14 PM CST

Nearby weather – Weather history – Daily summaries
Weather forecast

Temperature23.3°C (73.9°F)
Dew point1.1°C (34.0°F)
Winds 8 kts (4.1 m/s, 9.2 mph) Southwest (220°)
Visibility10 mi. (16.1 km)
Clouds Sky clear
Altimeter30.12 in.Hg (1020 mB)
Relative humidity23 %
Density altitude855 ft. (261 m)
Sea-level pressure102.0 kPa (1020 mB, 30.11 in.Hg)
Remarks Fully automated report
Automated weather observing station with precipitation discriminator
Flight conditions Visual Meteorological Conditions
Raw dataKTRL 241953Z AUTO 22008KT 10SM CLR 23/01 A3012 RMK AO2 SLP196 T02330011
An error has occurred. This application may no longer respond until reloaded. Reload 🗙